»·PEaware :: BADGR11 KEND-KEND

BADGR11 :: KEND-KEND

FLIGHT INFORMATION

Flight Status: Arrived
Operator: Unknown
More flights by this operator :: More flights under this callsign
Pilot: Zack W. (22216)
Aircraft: BEECH AIRCRAFT T-6A TEXAN
(TEX2)
More flights by this aircraft type
Origin: KEND Vance AFB
United States
Destination: KEND Vance AFB
United States
More flights between these airports :: More routes between these airports
Route: AVK END9
File this flight plan on PilotEdge
Remarks:
Altitude:
(Current/Filed)
null
Speed:
(Current/Filed)
0kts
Departed: 08-Apr-21 07:07 AM
Arrived: 08-Apr-21 07:47 AM
Distance/Time
Traveled:
0nm/0:39
Distance/Time
To Go:
Arrived

Flight Plot

Page will automatically refresh every two minutes.

Flight plan parsing failed; only flown route is shown


Map Options




Map Legend


Flown Route
Filed Route
Departure Airport
Arrival Airport
Navaid (VOR, NDB)
Fix

Horizontal Profiles

Position Reports

Time Latitude Longitude Heading Altitude Ground
Speed
08-Apr-21 06:57 36.333430 -97.910261 270 1291ft 0kts
08-Apr-21 06:58 36.333430 -97.910261 270 1291ft 0kts
08-Apr-21 06:59 36.333430 -97.910261 270 1291ft 0kts
08-Apr-21 07:00 36.333430 -97.910261 270 1291ft 0kts
08-Apr-21 07:01 36.334627 -97.909074 3 1293ft 7kts
08-Apr-21 07:02 36.337447 -97.909195 359 1291ft 12kts
08-Apr-21 07:03 36.340904 -97.909202 359 1285ft 11kts
08-Apr-21 07:04 36.344493 -97.909172 358 1283ft 14kts
08-Apr-21 07:05 36.346774 -97.910503 274 1279ft 9kts
08-Apr-21 07:06 36.321362 -97.909183 171 1668ft 193kts
08-Apr-21 07:07 36.271227 -97.894789 169 4988ft 194kts
08-Apr-21 07:08 36.230435 -97.843560 68 4965ft 264kts
08-Apr-21 07:09 36.291194 -97.841469 333 5036ft 246kts
08-Apr-21 07:10 36.355142 -97.875759 332 5012ft 249kts
08-Apr-21 07:11 36.419221 -97.909863 351 4992ft 253kts
08-Apr-21 07:12 36.491854 -97.903469 4 5038ft 256kts
08-Apr-21 07:13 36.563431 -97.895838 359 6112ft 254kts
08-Apr-21 07:14 36.625635 -97.921065 291 5990ft 244kts
08-Apr-21 07:15 36.651735 -98.001328 289 6016ft 244kts
08-Apr-21 07:16 36.674849 -98.081941 292 5818ft 239kts
08-Apr-21 07:17 36.695094 -98.160943 277 4254ft 237kts
08-Apr-21 07:18 36.707395 -98.240554 284 3949ft 235kts
08-Apr-21 07:19 36.721057 -98.321312 277 3684ft 239kts
08-Apr-21 07:20 36.732535 -98.399384 284 3177ft 218kts
08-Apr-21 07:21 36.737547 -98.470422 258 2987ft 202kts
08-Apr-21 07:22 36.735212 -98.541582 274 3082ft 204kts
08-Apr-21 07:23 36.748821 -98.610255 289 2910ft 189kts
08-Apr-21 07:24 36.783773 -98.632236 2 2586ft 120kts
08-Apr-21 07:25 36.791066 -98.666423 240 1823ft 122kts
08-Apr-21 07:26 36.756878 -98.666613 111 2085ft 158kts
08-Apr-21 07:27 36.788341 -98.652190 355 2452ft 117kts
08-Apr-21 07:28 36.775646 -98.670410 181 1475ft 98kts
08-Apr-21 07:29 36.749108 -98.638298 98 3328ft 198kts
08-Apr-21 07:30 36.740206 -98.567626 99 5738ft 241kts
08-Apr-21 07:31 36.730648 -98.475996 98 5574ft 266kts
08-Apr-21 07:32 36.718867 -98.382894 103 5545ft 267kts
08-Apr-21 07:33 36.701986 -98.291075 105 5988ft 267kts
08-Apr-21 07:34 36.684860 -98.198270 96 5985ft 269kts
08-Apr-21 07:35 36.679622 -98.103433 97 6063ft 269kts
08-Apr-21 07:36 36.674288 -98.008041 93 6074ft 270kts
08-Apr-21 07:37 36.671304 -97.912779 93 6069ft 268kts
08-Apr-21 07:38 36.664240 -97.817876 114 5954ft 266kts
08-Apr-21 07:39 36.597301 -97.801008 181 4750ft 248kts
08-Apr-21 07:40 36.531214 -97.815540 221 2969ft 235kts
08-Apr-21 07:41 36.482472 -97.871496 240 2291ft 238kts
08-Apr-21 07:42 36.431451 -97.907057 181 2345ft 228kts
08-Apr-21 07:43 36.367918 -97.910926 182 2255ft 221kts
08-Apr-21 07:44 36.353789 -97.893719 1 2265ft 126kts
08-Apr-21 07:45 36.344523 -97.911054 182 1282ft 97kts
08-Apr-21 07:46 36.333809 -97.910149 47 1291ft 0kts

Navigation Log

Ident Type
Flight plan parsing failed, navigation log unavailable